sensor_id;sensor_type;location;lat;lon;timestamp;temperature;humidity
8858;DHT22;4465;50.904;4.696;2023-05-07T00:00:17;15.50;99.90
8858;DHT22;4465;50.904;4.696;2023-05-07T00:02:47;15.50;99.90
8858;DHT22;4465;50.904;4.696;2023-05-07T00:05:13;15.50;99.90
8858;DHT22;4465;50.904;4.696;2023-05-07T00:07:42;15.50;99.90
8858;DHT22;4465;50.904;4.696;2023-05-07T00:10:09;15.60;99.90
8858;DHT22;4465;50.904;4.696;2023-05-07T00:12:35;15.60;99.90
8858;DHT22;4465;50.904;4.696;2023-05-07T00:15:03;15.60;99.90
8858;DHT22;4465;50.904;4.696;2023-05-07T00:17:33;15.60;99.90
8858;DHT22;4465;50.904;4.696;2023-05-07T00:19:59;15.60;99.90
8858;DHT22;4465;50.904;4.696;2023-05-07T00:22:27;15.60;99.90
8858;DHT22;4465;50.904;4.696;2023-05-07T00:24:53;15.60;99.90
8858;DHT22;4465;50.904;4.696;2023-05-07T00:27:22;15.60;99.90
8858;DHT22;4465;50.904;4.696;2023-05-07T00:29:48;15.60;99.90
8858;DHT22;4465;50.904;4.696;2023-05-07T00:32:14;15.60;99.90
8858;DHT22;4465;50.904;4.696;2023-05-07T00:34:43;15.60;99.90
8858;DHT22;4465;50.904;4.696;2023-05-07T00:37:09;15.60;99.90
8858;DHT22;4465;50.904;4.696;2023-05-07T00:39:35;15.60;99.90
8858;DHT22;4465;50.904;4.696;2023-05-07T00:42:06;15.60;99.90
8858;DHT22;4465;50.904;4.696;2023-05-07T00:44:34;15.60;99.90
8858;DHT22;4465;50.904;4.696;2023-05-07T00:47:05;15.60;99.90
8858;DHT22;4465;50.904;4.696;2023-05-07T00:49:44;15.60;99.90
8858;DHT22;4465;50.904;4.696;2023-05-07T00:52:15;15.60;99.90
8858;DHT22;4465;50.904;4.696;2023-05-07T00:54:42;15.60;99.90
8858;DHT22;4465;50.904;4.696;2023-05-07T00:57:09;15.60;99.90
8858;DHT22;4465;50.904;4.696;2023-05-07T00:59:38;15.60;99.90
8858;DHT22;4465;50.904;4.696;2023-05-07T01:02:05;15.60;99.90
8858;DHT22;4465;50.904;4.696;2023-05-07T01:04:31;15.60;99.90
8858;DHT22;4465;50.904;4.696;2023-05-07T01:06:58;15.60;99.90
8858;DHT22;4465;50.904;4.696;2023-05-07T01:09:25;15.60;99.90
8858;DHT22;4465;50.904;4.696;2023-05-07T01:11:52;15.60;99.90
8858;DHT22;4465;50.904;4.696;2023-05-07T01:14:21;15.60;99.90
8858;DHT22;4465;50.904;4.696;2023-05-07T01:16:50;15.50;99.90
8858;DHT22;4465;50.904;4.696;2023-05-07T01:19:19;15.50;99.90
8858;DHT22;4465;50.904;4.696;2023-05-07T01:21:50;15.60;99.90
8858;DHT22;4465;50.904;4.696;2023-05-07T01:24:16;15.50;99.90
8858;DHT22;4465;50.904;4.696;2023-05-07T01:26:43;15.60;99.90
8858;DHT22;4465;50.904;4.696;2023-05-07T01:29:12;15.50;99.90
8858;DHT22;4465;50.904;4.696;2023-05-07T01:31:44;15.50;99.90
8858;DHT22;4465;50.904;4.696;2023-05-07T01:34:11;15.50;99.90
8858;DHT22;4465;50.904;4.696;2023-05-07T01:36:42;15.50;99.90
8858;DHT22;4465;50.904;4.696;2023-05-07T01:39:09;15.50;99.90
8858;DHT22;4465;50.904;4.696;2023-05-07T01:41:36;15.50;99.90
8858;DHT22;4465;50.904;4.696;2023-05-07T01:44:03;15.50;99.90
8858;DHT22;4465;50.904;4.696;2023-05-07T01:46:32;15.50;99.90
8858;DHT22;4465;50.904;4.696;2023-05-07T01:48:59;15.50;99.90
8858;DHT22;4465;50.904;4.696;2023-05-07T01:51:25;15.50;99.90
8858;DHT22;4465;50.904;4.696;2023-05-07T01:53:52;15.50;99.90
8858;DHT22;4465;50.904;4.696;2023-05-07T01:56:19;15.50;99.90
8858;DHT22;4465;50.904;4.696;2023-05-07T01:58:45;15.50;99.90
8858;DHT22;4465;50.904;4.696;2023-05-07T02:01:13;15.50;99.90
8858;DHT22;4465;50.904;4.696;2023-05-07T02:03:41;15.50;99.90
8858;DHT22;4465;50.904;4.696;2023-05-07T02:06:07;15.50;99.90
8858;DHT22;4465;50.904;4.696;2023-05-07T02:08:35;15.50;99.90
8858;DHT22;4465;50.904;4.696;2023-05-07T02:11:01;15.50;99.90
8858;DHT22;4465;50.904;4.696;2023-05-07T02:13:33;15.50;99.90
8858;DHT22;4465;50.904;4.696;2023-05-07T02:15:59;15.50;99.90
8858;DHT22;4465;50.904;4.696;2023-05-07T02:18:25;15.50;99.90
8858;DHT22;4465;50.904;4.696;2023-05-07T02:20:53;15.50;99.90
8858;DHT22;4465;50.904;4.696;2023-05-07T02:23:19;15.40;99.90
8858;DHT22;4465;50.904;4.696;2023-05-07T02:25:45;15.50;99.90
8858;DHT22;4465;50.904;4.696;2023-05-07T02:28:11;15.40;99.90
8858;DHT22;4465;50.904;4.696;2023-05-07T02:30:38;15.40;99.90
8858;DHT22;4465;50.904;4.696;2023-05-07T02:33:04;15.40;99.90
8858;DHT22;4465;50.904;4.696;2023-05-07T02:35:32;15.40;99.90
8858;DHT22;4465;50.904;4.696;2023-05-07T02:37:58;15.40;99.90
8858;DHT22;4465;50.904;4.696;2023-05-07T02:40:27;15.40;99.90
8858;DHT22;4465;50.904;4.696;2023-05-07T02:42:57;15.40;99.90
8858;DHT22;4465;50.904;4.696;2023-05-07T02:45:23;15.40;99.90
8858;DHT22;4465;50.904;4.696;2023-05-07T02:47:49;15.40;99.90
8858;DHT22;4465;50.904;4.696;2023-05-07T02:50:15;15.40;99.90
8858;DHT22;4465;50.904;4.696;2023-05-07T02:52:41;15.50;99.90
8858;DHT22;4465;50.904;4.696;2023-05-07T02:55:07;15.50;99.90
8858;DHT22;4465;50.904;4.696;2023-05-07T02:57:33;15.50;99.90
8858;DHT22;4465;50.904;4.696;2023-05-07T02:59:59;15.50;99.90
8858;DHT22;4465;50.904;4.696;2023-05-07T03:02:25;15.50;99.90
8858;DHT22;4465;50.904;4.696;2023-05-07T03:04:51;15.50;99.90
8858;DHT22;4465;50.904;4.696;2023-05-07T03:07:17;15.50;99.90
8858;DHT22;4465;50.904;4.696;2023-05-07T03:09:43;15.40;99.90
8858;DHT22;4465;50.904;4.696;2023-05-07T03:12:09;15.40;99.90
8858;DHT22;4465;50.904;4.696;2023-05-07T03:14:36;15.40;99.90
8858;DHT22;4465;50.904;4.696;2023-05-07T03:17:07;15.40;99.90
8858;DHT22;4465;50.904;4.696;2023-05-07T03:19:33;15.40;99.90
8858;DHT22;4465;50.904;4.696;2023-05-07T03:21:59;15.30;99.90
8858;DHT22;4465;50.904;4.696;2023-05-07T03:24:25;15.30;99.90
8858;DHT22;4465;50.904;4.696;2023-05-07T03:26:51;15.20;99.90
8858;DHT22;4465;50.904;4.696;2023-05-07T03:29:16;15.20;99.90
8858;DHT22;4465;50.904;4.696;2023-05-07T03:31:42;15.20;99.90
8858;DHT22;4465;50.904;4.696;2023-05-07T03:34:10;15.20;99.90
8858;DHT22;4465;50.904;4.696;2023-05-07T03:36:36;15.10;99.90
8858;DHT22;4465;50.904;4.696;2023-05-07T03:39:04;15.10;99.90
8858;DHT22;4465;50.904;4.696;2023-05-07T03:41:30;15.10;99.90
8858;DHT22;4465;50.904;4.696;2023-05-07T03:43:56;15.10;99.90
8858;DHT22;4465;50.904;4.696;2023-05-07T03:46:22;15.10;99.90
8858;DHT22;4465;50.904;4.696;2023-05-07T03:48:50;15.10;99.90
8858;DHT22;4465;50.904;4.696;2023-05-07T03:51:16;15.10;99.90
8858;DHT22;4465;50.904;4.696;2023-05-07T03:53:41;15.10;99.90
8858;DHT22;4465;50.904;4.696;2023-05-07T03:56:09;15.10;99.90
8858;DHT22;4465;50.904;4.696;2023-05-07T03:58:35;15.10;99.90
8858;DHT22;4465;50.904;4.696;2023-05-07T04:01:01;15.10;99.90
8858;DHT22;4465;50.904;4.696;2023-05-07T04:03:29;15.10;99.90
8858;DHT22;4465;50.904;4.696;2023-05-07T04:05:58;15.10;99.90
8858;DHT22;4465;50.904;4.696;2023-05-07T04:08:24;15.10;99.90
8858;DHT22;4465;50.904;4.696;2023-05-07T04:10:55;15.10;99.90
8858;DHT22;4465;50.904;4.696;2023-05-07T04:13:21;15.10;99.90
8858;DHT22;4465;50.904;4.696;2023-05-07T04:15:47;15.10;99.90
8858;DHT22;4465;50.904;4.696;2023-05-07T04:18:14;15.10;99.90
8858;DHT22;4465;50.904;4.696;2023-05-07T04:20:41;15.10;99.90
8858;DHT22;4465;50.904;4.696;2023-05-07T04:23:07;15.10;99.90
8858;DHT22;4465;50.904;4.696;2023-05-07T04:25:33;15.10;99.90
8858;DHT22;4465;50.904;4.696;2023-05-07T04:28:02;15.10;99.90
8858;DHT22;4465;50.904;4.696;2023-05-07T04:30:30;15.10;99.90
8858;DHT22;4465;50.904;4.696;2023-05-07T04:32:58;15.10;99.90
8858;DHT22;4465;50.904;4.696;2023-05-07T04:35:24;15.10;99.90
8858;DHT22;4465;50.904;4.696;2023-05-07T04:37:50;15.10;99.90
8858;DHT22;4465;50.904;4.696;2023-05-07T04:40:16;15.10;99.90
8858;DHT22;4465;50.904;4.696;2023-05-07T04:42:42;15.10;99.90
8858;DHT22;4465;50.904;4.696;2023-05-07T04:45:08;15.20;99.90
8858;DHT22;4465;50.904;4.696;2023-05-07T04:47:38;15.20;99.90
8858;DHT22;4465;50.904;4.696;2023-05-07T04:50:05;15.20;99.90
8858;DHT22;4465;50.904;4.696;2023-05-07T04:52:31;15.20;99.90
8858;DHT22;4465;50.904;4.696;2023-05-07T04:54:59;15.20;99.90
8858;DHT22;4465;50.904;4.696;2023-05-07T04:57:26;15.20;99.90
8858;DHT22;4465;50.904;4.696;2023-05-07T04:59:55;15.20;99.90
8858;DHT22;4465;50.904;4.696;2023-05-07T05:02:21;15.20;99.90
8858;DHT22;4465;50.904;4.696;2023-05-07T05:04:46;15.20;99.90
8858;DHT22;4465;50.904;4.696;2023-05-07T05:07:12;15.20;99.90
8858;DHT22;4465;50.904;4.696;2023-05-07T05:09:38;15.30;99.90
8858;DHT22;4465;50.904;4.696;2023-05-07T05:12:04;15.30;99.90
8858;DHT22;4465;50.904;4.696;2023-05-07T05:14:32;15.30;99.90
8858;DHT22;4465;50.904;4.696;2023-05-07T05:16:58;15.30;99.90
8858;DHT22;4465;50.904;4.696;2023-05-07T05:19:24;15.30;99.90
8858;DHT22;4465;50.904;4.696;2023-05-07T05:21:50;15.40;99.90
8858;DHT22;4465;50.904;4.696;2023-05-07T05:24:16;15.40;99.90
8858;DHT22;4465;50.904;4.696;2023-05-07T05:26:42;15.50;99.90
8858;DHT22;4465;50.904;4.696;2023-05-07T05:29:08;15.50;99.90
8858;DHT22;4465;50.904;4.696;2023-05-07T05:31:34;15.50;99.90
8858;DHT22;4465;50.904;4.696;2023-05-07T05:34:00;15.50;99.90
8858;DHT22;4465;50.904;4.696;2023-05-07T05:36:26;15.60;99.90
8858;DHT22;4465;50.904;4.696;2023-05-07T05:38:52;15.60;99.90
8858;DHT22;4465;50.904;4.696;2023-05-07T05:41:20;15.60;99.90
8858;DHT22;4465;50.904;4.696;2023-05-07T05:43:48;15.60;99.90
8858;DHT22;4465;50.904;4.696;2023-05-07T05:46:14;15.70;99.90
8858;DHT22;4465;50.904;4.696;2023-05-07T05:48:40;15.70;99.90
8858;DHT22;4465;50.904;4.696;2023-05-07T05:51:06;15.80;99.90
8858;DHT22;4465;50.904;4.696;2023-05-07T05:53:32;15.80;99.90
8858;DHT22;4465;50.904;4.696;2023-05-07T05:55:58;15.80;99.90
8858;DHT22;4465;50.904;4.696;2023-05-07T05:58:27;15.80;99.90
8858;DHT22;4465;50.904;4.696;2023-05-07T06:00:52;15.80;99.90
8858;DHT22;4465;50.904;4.696;2023-05-07T06:03:19;15.80;99.90
8858;DHT22;4465;50.904;4.696;2023-05-07T06:05:45;15.80;99.90
8858;DHT22;4465;50.904;4.696;2023-05-07T06:08:10;15.80;99.90
8858;DHT22;4465;50.904;4.696;2023-05-07T06:10:38;15.90;99.90
8858;DHT22;4465;50.904;4.696;2023-05-07T06:13:05;15.90;99.90
8858;DHT22;4465;50.904;4.696;2023-05-07T06:15:31;15.90;99.90
8858;DHT22;4465;50.904;4.696;2023-05-07T06:17:57;15.90;99.90
8858;DHT22;4465;50.904;4.696;2023-05-07T06:20:25;15.90;99.90
8858;DHT22;4465;50.904;4.696;2023-05-07T06:22:50;15.90;99.90
8858;DHT22;4465;50.904;4.696;2023-05-07T06:25:16;16.00;99.90
8858;DHT22;4465;50.904;4.696;2023-05-07T06:27:42;16.00;99.90
8858;DHT22;4465;50.904;4.696;2023-05-07T06:30:08;16.00;99.90
8858;DHT22;4465;50.904;4.696;2023-05-07T06:32:34;16.10;99.90
8858;DHT22;4465;50.904;4.696;2023-05-07T06:35:03;16.10;99.90
8858;DHT22;4465;50.904;4.696;2023-05-07T06:37:29;16.10;99.90
8858;DHT22;4465;50.904;4.696;2023-05-07T06:39:55;16.10;99.90
8858;DHT22;4465;50.904;4.696;2023-05-07T06:42:20;16.20;99.90
8858;DHT22;4465;50.904;4.696;2023-05-07T06:44:46;16.20;99.90
8858;DHT22;4465;50.904;4.696;2023-05-07T06:47:12;16.20;99.90
8858;DHT22;4465;50.904;4.696;2023-05-07T06:49:38;16.20;99.90
8858;DHT22;4465;50.904;4.696;2023-05-07T06:52:04;16.20;99.90
8858;DHT22;4465;50.904;4.696;2023-05-07T06:54:30;16.10;99.90
8858;DHT22;4465;50.904;4.696;2023-05-07T06:56:56;16.10;99.90
8858;DHT22;4465;50.904;4.696;2023-05-07T06:59:24;16.10;99.90
8858;DHT22;4465;50.904;4.696;2023-05-07T07:01:50;16.10;99.90
8858;DHT22;4465;50.904;4.696;2023-05-07T07:04:18;16.00;99.90
8858;DHT22;4465;50.904;4.696;2023-05-07T07:06:44;16.00;99.90
8858;DHT22;4465;50.904;4.696;2023-05-07T07:09:11;16.10;99.90
8858;DHT22;4465;50.904;4.696;2023-05-07T07:11:36;16.10;99.90
8858;DHT22;4465;50.904;4.696;2023-05-07T07:14:02;16.10;99.90
8858;DHT22;4465;50.904;4.696;2023-05-07T07:16:30;16.10;99.90
8858;DHT22;4465;50.904;4.696;2023-05-07T07:18:56;16.10;99.90
8858;DHT22;4465;50.904;4.696;2023-05-07T07:21:22;16.10;99.90
8858;DHT22;4465;50.904;4.696;2023-05-07T07:23:48;16.20;99.90
8858;DHT22;4465;50.904;4.696;2023-05-07T07:26:14;16.20;99.90
8858;DHT22;4465;50.904;4.696;2023-05-07T07:28:44;16.20;99.90
8858;DHT22;4465;50.904;4.696;2023-05-07T07:31:10;16.30;99.90
8858;DHT22;4465;50.904;4.696;2023-05-07T07:33:36;16.30;99.90
8858;DHT22;4465;50.904;4.696;2023-05-07T07:36:02;16.30;99.90
8858;DHT22;4465;50.904;4.696;2023-05-07T07:38:28;16.40;99.90
8858;DHT22;4465;50.904;4.696;2023-05-07T07:40:54;16.40;99.90
8858;DHT22;4465;50.904;4.696;2023-05-07T07:43:20;16.50;99.90
8858;DHT22;4465;50.904;4.696;2023-05-07T07:45:46;16.60;99.90
8858;DHT22;4465;50.904;4.696;2023-05-07T07:48:14;16.60;99.90
8858;DHT22;4465;50.904;4.696;2023-05-07T07:50:40;16.60;99.90
8858;DHT22;4465;50.904;4.696;2023-05-07T07:53:06;16.70;99.90
8858;DHT22;4465;50.904;4.696;2023-05-07T07:55:32;16.70;99.90
8858;DHT22;4465;50.904;4.696;2023-05-07T07:57:58;16.80;99.90
8858;DHT22;4465;50.904;4.696;2023-05-07T08:00:24;16.80;99.90
8858;DHT22;4465;50.904;4.696;2023-05-07T08:02:50;16.90;99.90
8858;DHT22;4465;50.904;4.696;2023-05-07T08:05:18;16.90;99.90
8858;DHT22;4465;50.904;4.696;2023-05-07T08:07:47;17.00;99.90
8858;DHT22;4465;50.904;4.696;2023-05-07T08:10:18;17.00;99.90
8858;DHT22;4465;50.904;4.696;2023-05-07T08:12:48;17.00;99.90
8858;DHT22;4465;50.904;4.696;2023-05-07T08:15:14;17.00;99.90
8858;DHT22;4465;50.904;4.696;2023-05-07T08:17:40;17.00;99.90
8858;DHT22;4465;50.904;4.696;2023-05-07T08:20:07;17.10;99.90
8858;DHT22;4465;50.904;4.696;2023-05-07T08:22:34;17.10;99.90
8858;DHT22;4465;50.904;4.696;2023-05-07T08:25:00;17.10;99.90
8858;DHT22;4465;50.904;4.696;2023-05-07T08:27:26;17.10;99.90
8858;DHT22;4465;50.904;4.696;2023-05-07T08:29:53;17.10;99.90
8858;DHT22;4465;50.904;4.696;2023-05-07T08:32:24;17.10;99.90
8858;DHT22;4465;50.904;4.696;2023-05-07T08:34:52;17.10;99.90
8858;DHT22;4465;50.904;4.696;2023-05-07T08:37:18;17.10;99.90
8858;DHT22;4465;50.904;4.696;2023-05-07T08:39:44;17.10;99.90
8858;DHT22;4465;50.904;4.696;2023-05-07T08:42:11;17.10;99.90
8858;DHT22;4465;50.904;4.696;2023-05-07T08:44:38;17.10;99.90
8858;DHT22;4465;50.904;4.696;2023-05-07T08:47:06;17.20;99.90
8858;DHT22;4465;50.904;4.696;2023-05-07T08:49:35;17.20;99.90
8858;DHT22;4465;50.904;4.696;2023-05-07T08:52:01;17.20;99.90
8858;DHT22;4465;50.904;4.696;2023-05-07T08:54:30;17.30;99.90
8858;DHT22;4465;50.904;4.696;2023-05-07T08:56:59;17.30;99.90
8858;DHT22;4465;50.904;4.696;2023-05-07T08:59:25;17.30;99.90
8858;DHT22;4465;50.904;4.696;2023-05-07T09:01:54;17.40;99.90
8858;DHT22;4465;50.904;4.696;2023-05-07T09:04:20;17.40;99.90
8858;DHT22;4465;50.904;4.696;2023-05-07T09:06:45;17.30;99.90
8858;DHT22;4465;50.904;4.696;2023-05-07T09:09:21;17.30;99.90
8858;DHT22;4465;50.904;4.696;2023-05-07T09:11:56;17.30;99.90
8858;DHT22;4465;50.904;4.696;2023-05-07T09:14:25;17.30;99.90
8858;DHT22;4465;50.904;4.696;2023-05-07T09:16:54;17.20;99.90
8858;DHT22;4465;50.904;4.696;2023-05-07T09:19:24;17.20;99.90
8858;DHT22;4465;50.904;4.696;2023-05-07T09:22:06;17.20;99.90
8858;DHT22;4465;50.904;4.696;2023-05-07T09:24:37;17.20;99.90
8858;DHT22;4465;50.904;4.696;2023-05-07T09:27:04;17.20;99.90
8858;DHT22;4465;50.904;4.696;2023-05-07T09:29:32;17.20;99.90
8858;DHT22;4465;50.904;4.696;2023-05-07T09:32:02;17.30;99.90
8858;DHT22;4465;50.904;4.696;2023-05-07T09:34:29;17.20;99.90
8858;DHT22;4465;50.904;4.696;2023-05-07T09:37:01;17.20;99.90
8858;DHT22;4465;50.904;4.696;2023-05-07T09:39:45;17.20;99.90
8858;DHT22;4465;50.904;4.696;2023-05-07T09:42:12;17.30;99.90
8858;DHT22;4465;50.904;4.696;2023-05-07T09:44:40;17.20;99.90
8858;DHT22;4465;50.904;4.696;2023-05-07T09:47:07;17.30;99.90
8858;DHT22;4465;50.904;4.696;2023-05-07T09:49:37;17.30;99.90
8858;DHT22;4465;50.904;4.696;2023-05-07T09:52:07;17.30;99.90
8858;DHT22;4465;50.904;4.696;2023-05-07T09:54:36;17.30;99.90
8858;DHT22;4465;50.904;4.696;2023-05-07T09:57:04;17.30;99.90
8858;DHT22;4465;50.904;4.696;2023-05-07T09:59:32;17.30;99.90
8858;DHT22;4465;50.904;4.696;2023-05-07T10:02:01;17.30;99.90
8858;DHT22;4465;50.904;4.696;2023-05-07T10:04:32;17.30;99.90
8858;DHT22;4465;50.904;4.696;2023-05-07T10:06:58;17.20;99.90
8858;DHT22;4465;50.904;4.696;2023-05-07T10:09:26;17.30;99.90
8858;DHT22;4465;50.904;4.696;2023-05-07T10:11:52;17.30;99.90
8858;DHT22;4465;50.904;4.696;2023-05-07T10:14:22;17.30;99.90
8858;DHT22;4465;50.904;4.696;2023-05-07T10:16:49;17.30;99.90
8858;DHT22;4465;50.904;4.696;2023-05-07T10:19:15;17.30;99.90
8858;DHT22;4465;50.904;4.696;2023-05-07T10:21:55;17.30;99.90
8858;DHT22;4465;50.904;4.696;2023-05-07T10:24:32;17.30;99.90
8858;DHT22;4465;50.904;4.696;2023-05-07T10:27:05;17.30;99.90
8858;DHT22;4465;50.904;4.696;2023-05-07T10:35:16;17.20;99.90
8858;DHT22;4465;50.904;4.696;2023-05-07T10:37:46;17.20;99.90
8858;DHT22;4465;50.904;4.696;2023-05-07T10:40:16;17.20;99.90
8858;DHT22;4465;50.904;4.696;2023-05-07T10:43:00;17.20;99.90
8858;DHT22;4465;50.904;4.696;2023-05-07T10:45:27;17.20;99.90
8858;DHT22;4465;50.904;4.696;2023-05-07T10:48:14;17.30;99.90
8858;DHT22;4465;50.904;4.696;2023-05-07T10:50:41;17.30;99.90
8858;DHT22;4465;50.904;4.696;2023-05-07T10:58:44;17.40;99.90
8858;DHT22;4465;50.904;4.696;2023-05-07T11:01:15;17.40;99.90
8858;DHT22;4465;50.904;4.696;2023-05-07T11:04:25;17.50;99.90
8858;DHT22;4465;50.904;4.696;2023-05-07T11:15:13;17.50;99.90
8858;DHT22;4465;50.904;4.696;2023-05-07T11:17:58;17.60;99.90
8858;DHT22;4465;50.904;4.696;2023-05-07T11:26:04;17.60;99.90
8858;DHT22;4465;50.904;4.696;2023-05-07T11:28:36;17.60;99.90
8858;DHT22;4465;50.904;4.696;2023-05-07T11:31:03;17.60;99.90
8858;DHT22;4465;50.904;4.696;2023-05-07T11:33:30;17.60;99.90
8858;DHT22;4465;50.904;4.696;2023-05-07T11:35:56;17.60;99.90
8858;DHT22;4465;50.904;4.696;2023-05-07T11:38:23;17.60;99.90
8858;DHT22;4465;50.904;4.696;2023-05-07T11:43:16;17.60;99.90
8858;DHT22;4465;50.904;4.696;2023-05-07T11:45:42;17.60;99.90
8858;DHT22;4465;50.904;4.696;2023-05-07T11:48:14;17.60;99.90
8858;DHT22;4465;50.904;4.696;2023-05-07T11:50:59;17.60;99.90
8858;DHT22;4465;50.904;4.696;2023-05-07T11:53:36;17.70;99.90
8858;DHT22;4465;50.904;4.696;2023-05-07T11:56:16;17.70;99.90
8858;DHT22;4465;50.904;4.696;2023-05-07T11:58:43;17.70;99.90
8858;DHT22;4465;50.904;4.696;2023-05-07T12:01:10;17.70;99.90
8858;DHT22;4465;50.904;4.696;2023-05-07T12:03:44;17.80;99.90
8858;DHT22;4465;50.904;4.696;2023-05-07T12:06:12;17.80;99.90
8858;DHT22;4465;50.904;4.696;2023-05-07T12:08:40;17.90;99.90
8858;DHT22;4465;50.904;4.696;2023-05-07T12:11:13;17.90;99.90
8858;DHT22;4465;50.904;4.696;2023-05-07T12:13:40;17.90;99.90
8858;DHT22;4465;50.904;4.696;2023-05-07T12:16:09;18.00;99.90
8858;DHT22;4465;50.904;4.696;2023-05-07T12:18:36;18.00;99.90
8858;DHT22;4465;50.904;4.696;2023-05-07T12:21:05;18.00;99.90
8858;DHT22;4465;50.904;4.696;2023-05-07T12:23:35;18.00;99.90
8858;DHT22;4465;50.904;4.696;2023-05-07T12:26:04;18.10;99.90
8858;DHT22;4465;50.904;4.696;2023-05-07T12:28:37;18.10;99.90
8858;DHT22;4465;50.904;4.696;2023-05-07T12:31:05;18.10;99.90
8858;DHT22;4465;50.904;4.696;2023-05-07T12:33:35;18.10;99.90
8858;DHT22;4465;50.904;4.696;2023-05-07T12:36:05;18.10;99.90
8858;DHT22;4465;50.904;4.696;2023-05-07T12:38:42;18.20;99.90
8858;DHT22;4465;50.904;4.696;2023-05-07T12:41:10;18.20;99.90
8858;DHT22;4465;50.904;4.696;2023-05-07T12:43:36;18.20;99.90
8858;DHT22;4465;50.904;4.696;2023-05-07T12:46:07;18.20;99.90
8858;DHT22;4465;50.904;4.696;2023-05-07T12:48:33;18.20;99.90
8858;DHT22;4465;50.904;4.696;2023-05-07T12:51:01;18.20;99.90
8858;DHT22;4465;50.904;4.696;2023-05-07T12:53:30;18.20;99.90
8858;DHT22;4465;50.904;4.696;2023-05-07T12:55:58;18.20;99.90
8858;DHT22;4465;50.904;4.696;2023-05-07T12:58:30;18.20;99.90
8858;DHT22;4465;50.904;4.696;2023-05-07T13:00:58;18.20;99.90
8858;DHT22;4465;50.904;4.696;2023-05-07T13:03:29;18.20;99.90
8858;DHT22;4465;50.904;4.696;2023-05-07T13:06:00;18.20;99.90
8858;DHT22;4465;50.904;4.696;2023-05-07T13:08:34;18.20;99.90
8858;DHT22;4465;50.904;4.696;2023-05-07T13:11:02;18.20;99.90
8858;DHT22;4465;50.904;4.696;2023-05-07T13:13:33;18.20;99.90
8858;DHT22;4465;50.904;4.696;2023-05-07T13:16:04;18.20;99.90
8858;DHT22;4465;50.904;4.696;2023-05-07T13:18:31;18.20;99.90
8858;DHT22;4465;50.904;4.696;2023-05-07T13:20:58;18.20;99.90
8858;DHT22;4465;50.904;4.696;2023-05-07T13:23:26;18.30;99.90
8858;DHT22;4465;50.904;4.696;2023-05-07T13:25:55;18.30;99.90
8858;DHT22;4465;50.904;4.696;2023-05-07T13:28:24;18.30;99.90
8858;DHT22;4465;50.904;4.696;2023-05-07T13:30:53;18.30;99.90
8858;DHT22;4465;50.904;4.696;2023-05-07T13:33:20;18.30;99.90
8858;DHT22;4465;50.904;4.696;2023-05-07T13:35:48;18.40;99.90
8858;DHT22;4465;50.904;4.696;2023-05-07T13:38:14;18.40;99.90
8858;DHT22;4465;50.904;4.696;2023-05-07T13:40:41;18.40;99.90
8858;DHT22;4465;50.904;4.696;2023-05-07T13:43:07;18.40;99.90
8858;DHT22;4465;50.904;4.696;2023-05-07T13:45:33;18.40;99.90
8858;DHT22;4465;50.904;4.696;2023-05-07T13:47:59;18.40;99.90
8858;DHT22;4465;50.904;4.696;2023-05-07T13:50:25;18.40;99.90
8858;DHT22;4465;50.904;4.696;2023-05-07T13:52:52;18.50;99.90
8858;DHT22;4465;50.904;4.696;2023-05-07T13:55:23;18.50;99.90
8858;DHT22;4465;50.904;4.696;2023-05-07T13:57:55;18.50;99.90
8858;DHT22;4465;50.904;4.696;2023-05-07T14:00:22;18.50;99.90
8858;DHT22;4465;50.904;4.696;2023-05-07T14:02:49;18.50;99.90
8858;DHT22;4465;50.904;4.696;2023-05-07T14:05:14;18.50;99.90
8858;DHT22;4465;50.904;4.696;2023-05-07T14:07:40;18.50;99.90
8858;DHT22;4465;50.904;4.696;2023-05-07T14:10:11;18.50;99.90
8858;DHT22;4465;50.904;4.696;2023-05-07T14:12:38;18.50;99.90
8858;DHT22;4465;50.904;4.696;2023-05-07T14:15:07;18.60;99.90
8858;DHT22;4465;50.904;4.696;2023-05-07T14:17:35;18.60;99.90
8858;DHT22;4465;50.904;4.696;2023-05-07T14:20:04;18.60;99.90
8858;DHT22;4465;50.904;4.696;2023-05-07T14:22:32;18.60;99.90
8858;DHT22;4465;50.904;4.696;2023-05-07T14:24:58;18.70;99.90
8858;DHT22;4465;50.904;4.696;2023-05-07T14:27:24;18.70;99.90
8858;DHT22;4465;50.904;4.696;2023-05-07T14:29:50;18.70;99.90
8858;DHT22;4465;50.904;4.696;2023-05-07T14:32:18;18.80;99.90
8858;DHT22;4465;50.904;4.696;2023-05-07T14:34:44;18.80;99.90
8858;DHT22;4465;50.904;4.696;2023-05-07T14:37:10;18.80;99.90
8858;DHT22;4465;50.904;4.696;2023-05-07T14:39:36;18.80;99.90
8858;DHT22;4465;50.904;4.696;2023-05-07T14:42:02;18.80;99.90
8858;DHT22;4465;50.904;4.696;2023-05-07T14:44:28;18.90;99.90
8858;DHT22;4465;50.904;4.696;2023-05-07T14:46:54;18.90;99.90
8858;DHT22;4465;50.904;4.696;2023-05-07T14:49:21;18.90;99.90
8858;DHT22;4465;50.904;4.696;2023-05-07T14:51:49;18.90;99.90
8858;DHT22;4465;50.904;4.696;2023-05-07T14:54:15;18.80;99.90
8858;DHT22;4465;50.904;4.696;2023-05-07T14:56:42;18.80;99.90
8858;DHT22;4465;50.904;4.696;2023-05-07T14:59:08;18.80;99.90
8858;DHT22;4465;50.904;4.696;2023-05-07T15:01:35;18.80;99.90
8858;DHT22;4465;50.904;4.696;2023-05-07T15:04:04;18.80;99.90
8858;DHT22;4465;50.904;4.696;2023-05-07T15:06:33;18.80;99.90
8858;DHT22;4465;50.904;4.696;2023-05-07T15:08:59;18.80;99.90
8858;DHT22;4465;50.904;4.696;2023-05-07T15:11:25;18.80;99.90
8858;DHT22;4465;50.904;4.696;2023-05-07T15:13:51;18.80;99.90
8858;DHT22;4465;50.904;4.696;2023-05-07T15:16:17;18.80;99.90
8858;DHT22;4465;50.904;4.696;2023-05-07T15:18:43;18.80;99.90
8858;DHT22;4465;50.904;4.696;2023-05-07T15:21:09;18.80;99.90
8858;DHT22;4465;50.904;4.696;2023-05-07T15:23:35;18.80;99.90
8858;DHT22;4465;50.904;4.696;2023-05-07T15:26:01;18.80;99.90
8858;DHT22;4465;50.904;4.696;2023-05-07T15:28:27;18.80;99.90
8858;DHT22;4465;50.904;4.696;2023-05-07T15:30:55;18.80;99.90
8858;DHT22;4465;50.904;4.696;2023-05-07T15:33:21;18.80;99.90
8858;DHT22;4465;50.904;4.696;2023-05-07T15:35:46;18.80;99.90
8858;DHT22;4465;50.904;4.696;2023-05-07T15:38:17;18.70;99.90
8858;DHT22;4465;50.904;4.696;2023-05-07T15:40:43;18.70;99.90
8858;DHT22;4465;50.904;4.696;2023-05-07T15:43:09;18.70;99.90
8858;DHT22;4465;50.904;4.696;2023-05-07T15:45:39;18.60;99.90
8858;DHT22;4465;50.904;4.696;2023-05-07T15:48:06;18.60;99.90
8858;DHT22;4465;50.904;4.696;2023-05-07T15:50:32;18.60;99.90
8858;DHT22;4465;50.904;4.696;2023-05-07T15:53:07;18.60;99.90
8858;DHT22;4465;50.904;4.696;2023-05-07T15:55:33;18.60;99.90
8858;DHT22;4465;50.904;4.696;2023-05-07T15:57:59;18.60;99.90
8858;DHT22;4465;50.904;4.696;2023-05-07T16:00:26;18.60;99.90
8858;DHT22;4465;50.904;4.696;2023-05-07T16:02:53;18.50;99.90
8858;DHT22;4465;50.904;4.696;2023-05-07T16:05:19;18.50;99.90
8858;DHT22;4465;50.904;4.696;2023-05-07T16:07:45;18.50;99.90
8858;DHT22;4465;50.904;4.696;2023-05-07T16:10:13;18.50;99.90
8858;DHT22;4465;50.904;4.696;2023-05-07T16:12:42;18.50;99.90
8858;DHT22;4465;50.904;4.696;2023-05-07T16:15:08;18.50;99.90
8858;DHT22;4465;50.904;4.696;2023-05-07T16:17:37;18.50;99.90
8858;DHT22;4465;50.904;4.696;2023-05-07T16:20:03;18.50;99.90
8858;DHT22;4465;50.904;4.696;2023-05-07T16:22:31;18.50;99.90
8858;DHT22;4465;50.904;4.696;2023-05-07T16:25:00;18.50;99.90
8858;DHT22;4465;50.904;4.696;2023-05-07T16:27:27;18.50;99.90
8858;DHT22;4465;50.904;4.696;2023-05-07T16:29:53;18.40;99.90
8858;DHT22;4465;50.904;4.696;2023-05-07T16:32:18;18.40;99.90